createdAt,value
2018-05-03T00:00:14.364Z,79.96
2018-05-03T00:01:14.347Z,79.48
2018-05-03T00:02:14.332Z,79.14
2018-05-03T00:03:14.313Z,80.05
2018-05-03T00:04:14.298Z,79.57
2018-05-03T00:05:14.283Z,79.28
2018-05-03T00:06:14.265Z,79.48
2018-05-03T00:07:14.248Z,79.48
2018-05-03T00:08:14.234Z,79.86
2018-05-03T00:09:14.214Z,79.10
2018-05-03T00:10:14.201Z,79.77
2018-05-03T00:11:14.185Z,79.96
2018-05-03T00:12:14.167Z,80.72
2018-05-03T00:13:14.149Z,80.33
2018-05-03T00:14:14.134Z,80.15
2018-05-03T00:15:14.118Z,81.01
2018-05-03T00:16:14.107Z,81.67
2018-05-03T00:17:14.085Z,81.58
2018-05-03T00:18:14.135Z,81.77
2018-05-03T00:19:14.051Z,81.67
2018-05-03T00:20:14.036Z,81.86
2018-05-03T00:21:14.019Z,81.67
2018-05-03T00:22:14.005Z,81.58
2018-05-03T00:23:13.986Z,82.24
2018-05-03T00:24:13.970Z,82.24
2018-05-03T00:25:13.954Z,82.24
2018-05-03T00:26:13.938Z,81.77
2018-05-03T00:27:13.922Z,81.67
2018-05-03T00:28:13.904Z,81.48
2018-05-03T00:29:13.889Z,81.38
2018-05-03T00:30:13.874Z,81.67
2018-05-03T00:31:13.856Z,82.24
2018-05-03T00:32:13.840Z,82.43
2018-05-03T00:33:13.823Z,81.67
2018-05-03T00:34:13.805Z,81.38
2018-05-03T00:35:13.792Z,81.01
2018-05-03T00:36:13.773Z,81.77
2018-05-03T00:37:13.757Z,81.58
2018-05-03T00:38:13.743Z,80.62
2018-05-03T00:39:13.724Z,81.67
2018-05-03T00:40:13.708Z,82.67
2018-05-03T00:41:13.690Z,83.01
2018-05-03T00:42:13.683Z,82.06
2018-05-03T00:43:13.660Z,82.72
2018-05-03T00:44:13.644Z,82.24
2018-05-03T00:45:13.631Z,82.24
2018-05-03T00:46:13.610Z,82.63
2018-05-03T00:47:13.592Z,83.29
2018-05-03T00:48:13.576Z,83.29
2018-05-03T00:49:13.560Z,82.15
2018-05-03T00:50:13.548Z,82.15
2018-05-03T00:51:13.528Z,81.29
2018-05-03T00:52:13.508Z,81.58
2018-05-03T00:53:13.494Z,80.53
2018-05-03T00:54:13.482Z,80.15
2018-05-03T00:55:13.464Z,79.67
2018-05-03T00:56:13.445Z,80.05
2018-05-03T00:57:13.429Z,80.53
2018-05-03T00:58:13.413Z,79.86
2018-05-03T00:59:13.394Z,80.72
2018-05-03T01:00:13.385Z,81.04
2018-05-03T01:01:13.362Z,81.10
2018-05-03T01:02:13.347Z,80.81
2018-05-03T01:03:13.329Z,81.38
2018-05-03T01:04:13.314Z,81.20
2018-05-03T01:05:13.297Z,81.58
2018-05-03T01:06:13.281Z,81.38
2018-05-03T01:07:13.263Z,81.48
2018-05-03T01:08:13.247Z,81.67
2018-05-03T01:09:13.233Z,81.38
2018-05-03T01:10:13.216Z,81.29
2018-05-03T01:11:13.199Z,81.96
2018-05-03T01:12:13.183Z,83.01
2018-05-03T01:13:13.166Z,82.53
2018-05-03T01:14:13.155Z,81.67
2018-05-03T01:15:13.133Z,81.48
2018-05-03T01:16:13.115Z,81.67
2018-05-03T01:17:13.100Z,82.15
2018-05-03T01:18:13.083Z,82.72
2018-05-03T01:19:13.069Z,82.53
2018-05-03T01:20:13.051Z,83.01
2018-05-03T01:21:13.035Z,82.95
2018-05-03T01:22:13.019Z,83.05
2018-05-03T01:23:13.004Z,83.01
2018-05-03T01:24:12.986Z,83.53
2018-05-03T01:25:12.972Z,83.39
2018-05-03T01:26:12.953Z,83.77
2018-05-03T01:27:12.937Z,83.67
2018-05-03T01:28:12.919Z,83.39
2018-05-03T01:29:12.908Z,83.67
2018-05-03T01:30:12.892Z,82.24
2018-05-03T01:31:12.870Z,83.20
2018-05-03T01:32:12.855Z,81.81
2018-05-03T01:33:12.838Z,81.58
2018-05-03T01:34:12.824Z,81.43
2018-05-03T01:35:12.805Z,81.14
2018-05-03T01:36:12.790Z,80.33
2018-05-03T01:37:12.774Z,81.24
2018-05-03T01:38:12.756Z,80.53
2018-05-03T01:39:12.742Z,81.20
2018-05-03T01:40:12.726Z,81.33
2018-05-03T01:41:12.710Z,81.29
2018-05-03T01:42:12.692Z,80.91
2018-05-03T01:43:12.676Z,81.67
2018-05-03T01:44:12.659Z,80.53
2018-05-03T01:45:12.646Z,80.43
2018-05-03T01:46:12.634Z,80.53
2018-05-03T01:47:12.611Z,80.24
2018-05-03T01:48:12.593Z,80.72
2018-05-03T01:49:12.578Z,81.38
2018-05-03T01:50:12.560Z,81.58
2018-05-03T01:51:12.544Z,81.24
2018-05-03T01:52:12.529Z,81.62
2018-05-03T01:53:12.513Z,81.96
2018-05-03T01:54:12.501Z,81.62
2018-05-03T01:55:12.479Z,81.52
2018-05-03T01:56:12.464Z,81.48
2018-05-03T01:57:12.449Z,81.96
2018-05-03T01:58:12.434Z,81.38
2018-05-03T01:59:12.423Z,80.91
2018-05-03T02:00:12.397Z,81.29
2018-05-03T02:01:12.381Z,81.71
2018-05-03T02:02:12.367Z,81.52
2018-05-03T02:03:12.347Z,81.24
2018-05-03T02:04:12.332Z,81.38
2018-05-03T02:05:12.316Z,82.43
2018-05-03T02:06:12.301Z,81.29
2018-05-03T02:07:12.283Z,81.62
2018-05-03T02:08:12.269Z,80.76
2018-05-03T02:09:12.252Z,81.77
2018-05-03T02:10:12.234Z,81.43
2018-05-03T02:11:12.218Z,82.72
2018-05-03T02:12:12.202Z,82.72
2018-05-03T02:13:12.182Z,82.06
2018-05-03T02:14:12.174Z,83.05
2018-05-03T02:15:12.155Z,83.48
2018-05-03T02:16:12.136Z,84.20
2018-05-03T02:17:12.119Z,84.44
2018-05-03T02:18:12.104Z,83.29
2018-05-03T02:19:12.089Z,84.48
2018-05-03T02:20:12.071Z,84.44
2018-05-03T02:21:12.057Z,85.30
2018-05-03T02:22:12.039Z,85.68
2018-05-03T02:23:12.021Z,85.77
2018-05-03T02:24:12.007Z,86.25
2018-05-03T02:25:11.991Z,85.87
2018-05-03T02:26:11.975Z,85.97
2018-05-03T02:27:11.958Z,86.35
2018-05-03T02:28:11.941Z,86.25
2018-05-03T02:29:11.926Z,86.16
2018-05-03T02:30:11.907Z,85.87
2018-05-03T02:31:11.892Z,86.35
2018-05-03T02:32:11.874Z,87.21
2018-05-03T02:33:11.860Z,87.02
2018-05-03T02:34:11.845Z,86.35
2018-05-03T02:35:11.824Z,86.63
2018-05-03T02:36:11.808Z,87.11
2018-05-03T02:37:11.871Z,87.78
2018-05-03T02:38:11.778Z,87.97
2018-05-03T02:39:11.758Z,87.40
2018-05-03T02:40:11.742Z,87.40
2018-05-03T02:41:11.729Z,88.07
2018-05-03T02:42:11.712Z,87.83
2018-05-03T02:43:11.693Z,88.50
2018-05-03T02:44:11.681Z,88.12
2018-05-03T02:45:11.660Z,88.59
2018-05-03T02:46:11.644Z,88.78
2018-05-03T02:47:11.635Z,89.36
2018-05-03T02:48:11.613Z,89.83
2018-05-03T02:49:11.597Z,89.45
2018-05-03T02:50:11.578Z,90.26
2018-05-03T02:51:11.567Z,90.36
2018-05-03T02:52:11.549Z,90.88
2018-05-03T02:53:11.528Z,90.64
2018-05-03T02:54:11.513Z,90.93
2018-05-03T02:55:11.497Z,91.03
2018-05-03T02:56:11.482Z,90.64
2018-05-03T02:57:11.466Z,90.64
2018-05-03T02:58:11.443Z,90.74
2018-05-03T02:59:11.430Z,91.03
2018-05-03T03:00:11.411Z,91.03
2018-05-03T03:01:11.393Z,91.50
2018-05-03T03:02:11.376Z,91.13
2018-05-03T03:03:11.360Z,91.13
2018-05-03T03:04:11.343Z,91.03
2018-05-03T03:05:11.336Z,91.13
2018-05-03T03:06:11.308Z,91.03
2018-05-03T03:07:11.290Z,91.03
2018-05-03T03:08:11.277Z,91.13
2018-05-03T03:09:11.263Z,91.03
2018-05-03T03:10:11.242Z,91.13
2018-05-03T03:11:11.223Z,91.13
2018-05-03T03:12:11.207Z,91.22
2018-05-03T03:13:11.190Z,91.31
2018-05-03T03:14:11.175Z,91.31
2018-05-03T03:15:11.153Z,91.79
2018-05-03T03:16:11.136Z,91.13
2018-05-03T03:17:11.120Z,91.13
2018-05-03T03:18:11.124Z,91.31
2018-05-03T03:19:11.085Z,91.22
2018-05-03T03:20:11.069Z,91.13
2018-05-03T03:21:11.050Z,90.93
2018-05-03T03:22:11.034Z,91.22
2018-05-03T03:23:11.017Z,90.55
2018-05-03T03:24:10.998Z,90.84
2018-05-03T03:25:10.984Z,90.74
2018-05-03T03:26:10.965Z,90.64
2018-05-03T03:27:10.949Z,91.03
2018-05-03T03:28:10.932Z,90.74
2018-05-03T03:29:10.912Z,90.55
2018-05-03T03:30:10.897Z,91.31
2018-05-03T03:31:10.877Z,91.13
2018-05-03T03:32:10.863Z,90.64
2018-05-03T03:33:10.849Z,90.64
2018-05-03T03:34:10.826Z,91.50
2018-05-03T03:35:10.810Z,91.13
2018-05-03T03:36:10.796Z,90.55
2018-05-03T03:37:10.776Z,91.22
2018-05-03T03:38:10.760Z,90.26
2018-05-03T03:39:10.741Z,90.84
2018-05-03T03:40:10.723Z,90.93
2018-05-03T03:41:10.706Z,90.74
2018-05-03T03:42:10.696Z,90.74
2018-05-03T03:43:10.672Z,90.84
2018-05-03T03:44:10.653Z,90.55
2018-05-03T03:45:10.639Z,90.45
2018-05-03T03:46:10.620Z,90.64
2018-05-03T03:47:10.600Z,90.93
2018-05-03T03:48:10.587Z,91.22
2018-05-03T03:49:10.566Z,91.22
2018-05-03T03:50:10.553Z,91.13
2018-05-03T03:51:10.531Z,91.17
2018-05-03T03:52:10.518Z,91.84
2018-05-03T03:53:10.575Z,92.13
2018-05-03T03:54:10.482Z,91.94
2018-05-03T03:55:10.463Z,92.22
2018-05-03T03:56:10.443Z,91.84
2018-05-03T03:57:10.429Z,91.84
2018-05-03T03:58:10.411Z,92.60
2018-05-03T03:59:10.463Z,92.50
2018-05-03T04:00:10.385Z,92.50
2018-05-03T04:01:10.358Z,91.84
2018-05-03T04:02:10.340Z,92.69
2018-05-03T04:03:10.325Z,92.69
2018-05-03T04:04:10.304Z,92.79
2018-05-03T04:05:10.288Z,92.50
2018-05-03T04:06:10.271Z,92.60
2018-05-03T04:07:10.254Z,92.89
2018-05-03T04:08:10.234Z,92.55
2018-05-03T04:09:10.221Z,92.50
2018-05-03T04:10:10.200Z,93.32
2018-05-03T04:11:10.183Z,93.70
2018-05-03T04:12:10.166Z,93.41
2018-05-03T04:13:10.148Z,92.65
2018-05-03T04:14:10.130Z,92.93
2018-05-03T04:15:10.113Z,93.03
2018-05-03T04:16:10.095Z,92.55
2018-05-03T04:17:10.082Z,92.55
2018-05-03T04:18:10.061Z,92.74
2018-05-03T04:19:10.043Z,93.03
2018-05-03T04:20:10.025Z,92.93
2018-05-03T04:21:10.013Z,93.70
2018-05-03T04:22:10.098Z,93.88
2018-05-03T04:23:09.973Z,93.51
2018-05-03T04:24:09.960Z,93.46
2018-05-03T04:25:09.944Z,93.65
2018-05-03T04:26:09.921Z,93.08
2018-05-03T04:27:09.905Z,93.88
2018-05-03T04:28:09.891Z,93.55
2018-05-03T04:29:09.871Z,94.17
2018-05-03T04:30:09.851Z,94.17
2018-05-03T04:31:09.834Z,94.17
2018-05-03T04:32:09.816Z,94.37
2018-05-03T04:33:09.799Z,94.17
2018-05-03T04:34:09.782Z,93.98
2018-05-03T04:35:09.764Z,93.98
2018-05-03T04:36:09.749Z,94.27
2018-05-03T04:37:09.728Z,93.88
2018-05-03T04:38:09.714Z,93.79
2018-05-03T04:39:09.694Z,93.98
2018-05-03T04:40:09.678Z,93.98
2018-05-03T04:41:09.660Z,94.08
2018-05-03T04:42:09.644Z,93.70
2018-05-03T04:43:09.635Z,93.60
2018-05-03T04:44:09.614Z,93.51
2018-05-03T04:45:09.592Z,94.27
2018-05-03T04:46:09.574Z,93.70
2018-05-03T04:47:09.556Z,93.41
2018-05-03T04:48:09.540Z,94.08
2018-05-03T04:49:09.530Z,93.12
2018-05-03T04:50:09.505Z,92.93
2018-05-03T04:51:09.487Z,93.12
2018-05-03T04:52:09.470Z,93.08
2018-05-03T04:53:09.457Z,92.79
2018-05-03T04:54:09.461Z,93.27
2018-05-03T04:55:09.419Z,92.60
2018-05-03T04:56:09.401Z,92.69
2018-05-03T04:57:09.391Z,91.83
2018-05-03T04:58:09.372Z,92.79
2018-05-03T04:59:09.352Z,92.98
2018-05-03T05:00:09.333Z,92.79
2018-05-03T05:01:09.315Z,92.88
2018-05-03T05:02:09.301Z,91.83
2018-05-03T05:03:09.282Z,91.64
2018-05-03T05:04:09.265Z,91.07
2018-05-03T05:05:09.253Z,90.79
2018-05-03T05:06:09.231Z,90.73
2018-05-03T05:07:09.216Z,90.73
2018-05-03T05:08:09.200Z,89.50
2018-05-03T05:09:09.184Z,89.12
2018-05-03T05:10:09.166Z,88.92
2018-05-03T05:11:09.149Z,88.45
2018-05-03T05:12:09.133Z,87.97
2018-05-03T05:13:09.116Z,87.59
2018-05-03T05:14:09.101Z,88.73
2018-05-03T05:15:09.088Z,88.54
2018-05-03T05:16:09.066Z,86.77
2018-05-03T05:17:09.052Z,86.10
2018-05-03T05:18:09.034Z,85.30
2018-05-03T05:19:09.021Z,85.68
2018-05-03T05:20:09.002Z,86.10
2018-05-03T05:21:08.986Z,87.25
2018-05-03T05:22:08.967Z,85.72
2018-05-03T05:23:08.950Z,85.72
2018-05-03T05:24:08.976Z,84.29
2018-05-03T05:25:08.917Z,84.48
2018-05-03T05:26:08.909Z,84.86
2018-05-03T05:27:08.886Z,83.81
2018-05-03T05:28:08.869Z,84.10
2018-05-03T05:29:08.852Z,84.48
2018-05-03T05:30:08.837Z,85.53
2018-05-03T05:31:08.821Z,84.67
2018-05-03T05:32:08.811Z,85.44
2018-05-03T05:33:08.787Z,85.05
2018-05-03T05:34:08.774Z,85.44
2018-05-03T05:35:08.756Z,84.29
2018-05-03T05:36:08.739Z,84.52
2018-05-03T05:37:08.725Z,84.72
2018-05-03T05:38:08.707Z,84.43
2018-05-03T05:39:08.697Z,84.05
2018-05-03T05:40:08.675Z,83.86
2018-05-03T05:41:08.660Z,83.76
2018-05-03T05:42:08.645Z,82.90
2018-05-03T05:43:08.627Z,83.18
2018-05-03T05:44:08.611Z,83.28
2018-05-03T05:45:08.596Z,83.28
2018-05-03T05:46:08.580Z,82.08
2018-05-03T05:47:08.564Z,82.56
2018-05-03T05:48:08.554Z,81.60
2018-05-03T05:49:08.533Z,81.51
2018-05-03T05:50:08.519Z,80.93
2018-05-03T05:51:08.566Z,80.46
2018-05-03T05:52:08.487Z,80.65
2018-05-03T05:53:08.474Z,79.98
2018-05-03T05:54:08.457Z,79.88
2018-05-03T05:55:08.443Z,79.41
2018-05-03T05:56:08.425Z,78.83
2018-05-03T05:57:08.408Z,77.87
2018-05-03T05:58:08.393Z,77.87
2018-05-03T05:59:08.378Z,77.63
2018-05-03T06:00:08.362Z,76.67
2018-05-03T06:01:08.351Z,75.91
2018-05-03T06:02:08.333Z,76.00
2018-05-03T06:03:08.315Z,75.91
2018-05-03T06:04:08.378Z,74.76
2018-05-03T06:05:08.287Z,74.95
2018-05-03T06:06:08.277Z,74.48
2018-05-03T06:07:08.257Z,73.52
2018-05-03T06:08:08.241Z,73.52
2018-05-03T06:09:08.226Z,72.28
2018-05-03T06:10:08.215Z,72.37
2018-05-03T06:11:08.195Z,71.32
2018-05-03T06:12:08.181Z,71.42
2018-05-03T06:13:08.166Z,70.75
2018-05-03T06:14:08.151Z,70.50
2018-05-03T06:15:08.135Z,69.64
2018-05-03T06:16:08.119Z,69.06
2018-05-03T06:17:08.123Z,68.39
2018-05-03T06:18:08.090Z,68.20
2018-05-03T06:19:08.082Z,68.01
2018-05-03T06:20:08.059Z,66.19
2018-05-03T06:21:08.046Z,66.96
2018-05-03T06:22:08.032Z,66.28
2018-05-03T06:23:08.017Z,66.28
2018-05-03T06:24:08.001Z,66.28
2018-05-03T06:25:07.986Z,65.90
2018-05-03T06:26:07.973Z,65.81
2018-05-03T06:27:07.955Z,65.52
2018-05-03T06:28:07.939Z,65.52
2018-05-03T06:29:07.926Z,65.17
2018-05-03T06:30:07.914Z,65.45
2018-05-03T06:31:07.894Z,66.03
2018-05-03T06:32:07.879Z,65.36
2018-05-03T06:33:07.868Z,65.55
2018-05-03T06:34:07.851Z,65.55
2018-05-03T06:35:07.835Z,65.84
2018-05-03T06:36:07.822Z,66.22
2018-05-03T06:37:07.808Z,65.84
2018-05-03T06:38:07.794Z,65.55
2018-05-03T06:39:07.779Z,65.74
2018-05-03T06:40:07.763Z,65.08
2018-05-03T06:41:07.755Z,65.26
2018-05-03T06:42:07.737Z,64.50
2018-05-03T06:43:07.721Z,64.22
2018-05-03T06:44:07.704Z,64.69
2018-05-03T06:45:07.692Z,64.59
2018-05-03T06:46:07.679Z,64.59
2018-05-03T06:47:07.661Z,65.55
2018-05-03T06:48:07.647Z,66.13
2018-05-03T06:49:07.632Z,66.51
2018-05-03T06:50:07.618Z,65.84
2018-05-03T06:51:07.602Z,65.26
2018-05-03T06:52:07.590Z,64.88
2018-05-03T06:53:07.573Z,65.84
2018-05-03T06:54:07.611Z,65.55
2018-05-03T06:55:07.547Z,66.51
2018-05-03T06:56:07.531Z,65.84
2018-05-03T06:57:07.530Z,65.74
2018-05-03T06:58:07.503Z,65.20
2018-05-03T06:59:07.485Z,64.82
2018-05-03T07:00:07.473Z,63.19
2018-05-03T07:01:07.459Z,63.86
2018-05-03T07:02:07.445Z,63.10
2018-05-03T07:03:07.440Z,63.54
2018-05-03T07:04:07.440Z,63.26
2018-05-03T07:05:07.404Z,63.35
2018-05-03T07:06:07.391Z,63.64
2018-05-03T07:07:07.375Z,63.67
2018-05-03T07:08:07.362Z,63.57
2018-05-03T07:09:07.354Z,63.96
2018-05-03T07:10:07.332Z,64.53
2018-05-03T07:11:07.319Z,63.96
2018-05-03T07:12:07.306Z,62.90
2018-05-03T07:13:07.293Z,63.57
2018-05-03T07:14:07.280Z,62.74
2018-05-03T07:15:07.264Z,60.60
2018-05-03T07:16:07.248Z,58.04
2018-05-03T07:17:07.237Z,56.66
2018-05-03T07:18:07.221Z,54.38
2018-05-03T07:19:07.208Z,52.70
2018-05-03T07:20:07.202Z,51.29
2018-05-03T07:21:07.186Z,49.38
2018-05-03T07:22:07.168Z,48.16
2018-05-03T07:23:07.155Z,46.93
2018-05-03T07:24:07.146Z,45.21
2018-05-03T07:25:07.136Z,45.12
2018-05-03T07:26:07.119Z,46.11
2018-05-03T07:27:07.110Z,44.95
2018-05-03T07:28:07.098Z,45.41
2018-05-03T07:29:07.087Z,46.08
2018-05-03T07:30:07.081Z,45.58
2018-05-03T07:31:07.064Z,45.27
2018-05-03T07:32:07.055Z,45.63
2018-05-03T07:33:07.045Z,47.53
2018-05-03T07:34:07.034Z,48.11
2018-05-03T07:35:07.024Z,47.53
2018-05-03T07:36:07.012Z,47.22
2018-05-03T07:37:07.007Z,47.97
2018-05-03T07:38:06.997Z,48.64
2018-05-03T07:39:06.985Z,48.71
2018-05-03T07:40:06.973Z,48.81
2018-05-03T07:41:06.964Z,49.48
2018-05-03T07:42:06.956Z,50.51
2018-05-03T07:43:06.941Z,51.79
2018-05-03T07:44:06.932Z,51.37
2018-05-03T07:45:06.923Z,51.18
2018-05-03T07:46:06.911Z,51.86
2018-05-03T07:47:06.912Z,51.57
2018-05-03T07:48:06.896Z,51.57
2018-05-03T07:49:06.881Z,52.62
2018-05-03T07:50:06.872Z,52.81
2018-05-03T07:51:06.861Z,52.72
2018-05-03T07:52:06.853Z,52.34
2018-05-03T07:53:06.840Z,52.40
2018-05-03T07:54:06.831Z,52.60
2018-05-03T07:55:06.825Z,52.62
2018-05-03T07:56:06.811Z,53.30
2018-05-03T07:57:06.798Z,52.60
2018-05-03T07:58:06.789Z,52.60
2018-05-03T07:59:06.779Z,52.53
2018-05-03T08:00:06.768Z,53.39
2018-05-03T08:01:06.764Z,52.62
2018-05-03T08:02:06.767Z,52.62
2018-05-03T08:03:06.738Z,51.79
2018-05-03T08:04:06.725Z,51.69
2018-05-03T08:05:06.726Z,51.88
2018-05-03T08:06:06.709Z,51.02
2018-05-03T08:07:06.695Z,51.81
2018-05-03T08:08:06.687Z,50.27
2018-05-03T08:09:06.673Z,50.01
2018-05-03T08:10:06.664Z,49.43
2018-05-03T08:11:06.655Z,48.79
2018-05-03T08:12:06.649Z,48.21
2018-05-03T08:13:06.636Z,47.58
2018-05-03T08:14:06.629Z,45.58
2018-05-03T08:15:06.619Z,44.04
2018-05-03T08:16:06.607Z,43.96
2018-05-03T08:17:06.643Z,43.60
2018-05-03T08:18:06.591Z,42.97
2018-05-03T08:19:06.583Z,40.96
2018-05-03T08:20:06.573Z,39.84
2018-05-03T08:21:06.565Z,38.02
2018-05-03T08:22:06.558Z,36.49
2018-05-03T08:23:06.552Z,36.12
2018-05-03T08:24:06.549Z,35.85
2018-05-03T08:25:06.543Z,35.19
2018-05-03T08:26:06.541Z,34.23
2018-05-03T08:27:06.533Z,32.68
2018-05-03T08:28:06.535Z,32.97
2018-05-03T08:29:06.541Z,33.36
2018-05-03T08:30:06.519Z,32.59
2018-05-03T08:31:06.514Z,32.89
2018-05-03T08:32:06.517Z,33.29
2018-05-03T08:33:06.516Z,31.57
2018-05-03T08:34:06.510Z,31.19
2018-05-03T08:35:06.505Z,30.82
2018-05-03T08:36:06.503Z,30.44
2018-05-03T08:37:06.503Z,30.15
2018-05-03T08:38:06.501Z,30.07
2018-05-03T08:39:06.498Z,28.53
2018-05-03T08:40:06.499Z,27.47
2018-05-03T08:41:06.499Z,28.26
2018-05-03T08:42:06.502Z,28.47
2018-05-03T08:43:06.496Z,26.81
2018-05-03T08:44:06.497Z,26.72
2018-05-03T08:45:06.495Z,27.50
2018-05-03T08:46:06.496Z,26.53
2018-05-03T08:47:06.504Z,26.53
2018-05-03T08:48:06.496Z,25.57
2018-05-03T08:49:06.498Z,25.68
2018-05-03T08:50:06.496Z,25.49
2018-05-03T08:51:06.495Z,23.93
2018-05-03T08:52:06.500Z,24.22
2018-05-03T08:53:06.504Z,23.74
2018-05-03T08:54:06.500Z,23.74
2018-05-03T08:55:06.499Z,22.96
2018-05-03T08:56:06.499Z,24.13
2018-05-03T08:57:06.505Z,23.93
2018-05-03T08:58:06.503Z,24.43
2018-05-03T08:59:06.502Z,23.47
2018-05-03T09:00:06.505Z,23.27
2018-05-03T09:01:06.505Z,22.49
2018-05-03T09:02:06.509Z,23.28
2018-05-03T09:03:06.512Z,22.51
2018-05-03T09:04:06.509Z,22.80
2018-05-03T09:05:06.515Z,23.19
2018-05-03T09:06:06.524Z,22.89
2018-05-03T09:07:06.518Z,23.30
2018-05-03T09:08:06.516Z,22.62
2018-05-03T09:09:06.518Z,20.76
2018-05-03T09:10:06.526Z,19.79
2018-05-03T09:11:06.529Z,19.89
2018-05-03T09:12:06.523Z,19.59
2018-05-03T09:13:06.528Z,21.45
2018-05-03T09:14:06.531Z,20.48
2018-05-03T09:15:06.532Z,19.59
2018-05-03T09:16:06.535Z,19.88
2018-05-03T09:17:06.536Z,21.25
2018-05-03T09:18:06.541Z,20.66
2018-05-03T09:19:06.542Z,20.86
2018-05-03T09:20:06.542Z,21.06
2018-05-03T09:21:06.544Z,21.45
2018-05-03T09:22:06.548Z,19.59
2018-05-03T09:23:06.550Z,19.90
2018-05-03T09:24:06.551Z,20.00
2018-05-03T09:25:06.555Z,19.51
2018-05-03T09:26:06.557Z,19.91
2018-05-03T09:27:06.562Z,19.90
2018-05-03T09:28:06.570Z,20.00
2018-05-03T09:29:06.564Z,19.51
2018-05-03T09:30:06.567Z,19.02
2018-05-03T09:31:06.569Z,17.94
2018-05-03T09:32:06.577Z,17.74
2018-05-03T09:33:06.579Z,17.94
2018-05-03T09:34:06.579Z,18.34
2018-05-03T09:35:06.583Z,18.62
2018-05-03T09:36:06.586Z,19.80
2018-05-03T09:37:06.589Z,18.93
2018-05-03T09:38:06.593Z,18.73
2018-05-03T09:39:06.621Z,19.91
2018-05-03T09:40:06.599Z,17.96
2018-05-03T09:41:06.602Z,18.05
2018-05-03T09:42:06.608Z,18.35
2018-05-03T09:43:06.606Z,18.73
2018-05-03T09:44:06.609Z,19.02
2018-05-03T09:45:06.614Z,18.44
2018-05-03T09:46:06.618Z,18.15
2018-05-03T09:47:06.618Z,18.54
2018-05-03T09:48:06.627Z,18.84
2018-05-03T09:49:06.629Z,18.74
2018-05-03T09:50:06.631Z,17.56
2018-05-03T09:51:06.636Z,17.85
2018-05-03T09:52:06.637Z,18.15
2018-05-03T09:53:06.640Z,18.15
2018-05-03T09:54:06.647Z,18.84
2018-05-03T09:55:06.647Z,18.44
2018-05-03T09:56:06.660Z,18.36
2018-05-03T09:57:06.656Z,18.06
2018-05-03T09:58:06.660Z,19.14
2018-05-03T09:59:06.663Z,17.86
2018-05-03T10:00:06.668Z,19.44
2018-05-03T10:01:06.673Z,17.96
2018-05-03T10:02:06.672Z,17.86
2018-05-03T10:03:06.676Z,17.86
2018-05-03T10:04:06.680Z,18.54
2018-05-03T10:05:06.684Z,18.15
2018-05-03T10:06:06.689Z,17.36
2018-05-03T10:07:06.693Z,17.27
2018-05-03T10:08:06.694Z,17.07
2018-05-03T10:09:06.703Z,18.15
2018-05-03T10:10:06.702Z,18.73
2018-05-03T10:11:06.709Z,18.83
2018-05-03T10:12:06.708Z,18.15
2018-05-03T10:13:06.716Z,18.44
2018-05-03T10:14:06.719Z,17.86
2018-05-03T10:15:06.721Z,17.96
2018-05-03T10:16:06.725Z,17.57
2018-05-03T10:17:06.729Z,18.07
2018-05-03T10:18:06.734Z,18.76
2018-05-03T10:19:06.737Z,17.88
2018-05-03T10:20:06.746Z,17.38
2018-05-03T10:21:06.752Z,16.89
2018-05-03T10:22:06.757Z,17.09
2018-05-03T10:23:06.753Z,17.48
2018-05-03T10:24:06.765Z,17.68
2018-05-03T10:25:06.761Z,17.96
2018-05-03T10:26:06.771Z,18.06
2018-05-03T10:27:06.771Z,17.47
2018-05-03T10:28:06.775Z,17.66
2018-05-03T10:29:06.783Z,17.86
2018-05-03T10:30:06.843Z,17.56
2018-05-03T10:31:06.789Z,18.05
2018-05-03T10:32:06.795Z,17.47
2018-05-03T10:33:06.799Z,17.77
2018-05-03T10:34:06.802Z,16.89
2018-05-03T10:35:06.818Z,17.88
2018-05-03T10:36:06.890Z,17.88
2018-05-03T10:37:06.820Z,16.78
2018-05-03T10:38:06.825Z,17.96
2018-05-03T10:39:06.824Z,19.44
2018-05-03T10:40:07.328Z,17.08
2018-05-03T10:41:06.833Z,17.67
2018-05-03T10:42:06.929Z,16.97
2018-05-03T10:43:06.842Z,17.27
2018-05-03T10:44:06.848Z,16.97
2018-05-03T10:45:06.852Z,17.86
2018-05-03T10:46:06.860Z,18.44
2018-05-03T10:47:06.857Z,19.02
2018-05-03T10:48:06.867Z,19.32
2018-05-03T10:49:06.875Z,20.09
2018-05-03T10:50:06.873Z,19.81
2018-05-03T10:51:06.876Z,19.32
2018-05-03T10:52:06.879Z,19.71
2018-05-03T10:53:06.895Z,20.01
2018-05-03T10:54:06.889Z,19.81
2018-05-03T10:55:06.891Z,19.51
2018-05-03T10:56:06.899Z,19.10
2018-05-03T10:57:06.901Z,18.99
2018-05-03T10:58:06.910Z,19.57
2018-05-03T10:59:06.909Z,20.35
2018-05-03T11:00:06.912Z,19.96
2018-05-03T11:01:06.916Z,20.85
2018-05-03T11:02:06.920Z,21.34
2018-05-03T11:03:06.921Z,20.86
2018-05-03T11:04:06.928Z,20.96
2018-05-03T11:05:06.930Z,21.35
2018-05-03T11:06:06.936Z,20.36
2018-05-03T11:07:06.936Z,19.78
2018-05-03T11:08:06.949Z,19.88
2018-05-03T11:09:06.945Z,19.00
2018-05-03T11:10:06.955Z,18.71
2018-05-03T11:11:07.019Z,18.81
2018-05-03T11:12:06.964Z,19.00
2018-05-03T11:13:06.958Z,20.07
2018-05-03T11:14:06.965Z,20.07
2018-05-03T11:15:06.965Z,19.30
2018-05-03T11:16:06.966Z,18.03
2018-05-03T11:17:06.972Z,19.90
2018-05-03T11:18:06.975Z,19.21
2018-05-03T11:19:06.980Z,18.52
2018-05-03T11:20:06.983Z,18.42
2018-05-03T11:21:06.987Z,17.94
2018-05-03T11:22:06.985Z,19.70
2018-05-03T11:23:06.988Z,19.99
2018-05-03T11:24:06.993Z,19.31
2018-05-03T11:25:06.995Z,17.84
2018-05-03T11:26:07.000Z,18.13
2018-05-03T11:27:07.000Z,18.23
2018-05-03T11:28:07.002Z,18.44
2018-05-03T11:29:07.004Z,18.52
2018-05-03T11:30:07.009Z,18.92
2018-05-03T11:31:07.010Z,19.10
2018-05-03T11:32:07.010Z,19.18
2018-05-03T11:33:07.018Z,20.94
2018-05-03T11:34:07.017Z,20.84
2018-05-03T11:35:07.021Z,20.34
2018-05-03T11:36:07.021Z,20.24
2018-05-03T11:37:07.026Z,19.06
2018-05-03T11:38:07.030Z,19.35
2018-05-03T11:39:07.028Z,19.44
2018-05-03T11:40:07.030Z,20.92
2018-05-03T11:41:07.043Z,19.65
2018-05-03T11:42:07.034Z,19.96
2018-05-03T11:43:07.035Z,20.15
2018-05-03T11:44:07.036Z,19.77
2018-05-03T11:45:07.038Z,19.00
2018-05-03T11:46:07.041Z,17.52
2018-05-03T11:47:07.043Z,18.79
2018-05-03T11:48:07.045Z,19.10
2018-05-03T11:49:07.049Z,19.20
2018-05-03T11:50:07.048Z,19.29
2018-05-03T11:51:07.049Z,19.49
2018-05-03T11:52:07.052Z,19.10
2018-05-03T11:53:07.057Z,17.14
2018-05-03T11:54:07.055Z,16.75
2018-05-03T11:55:07.055Z,16.75
2018-05-03T11:56:07.072Z,17.54
2018-05-03T11:57:07.060Z,17.93
2018-05-03T11:58:07.064Z,18.03
2018-05-03T11:59:07.149Z,18.21
2018-05-03T12:00:07.069Z,19.00
2018-05-03T12:01:07.068Z,18.80
2018-05-03T12:02:07.069Z,18.70
2018-05-03T12:03:07.071Z,17.42
2018-05-03T12:04:07.072Z,19.38
2018-05-03T12:05:07.078Z,18.89
2018-05-03T12:06:07.109Z,18.70
2018-05-03T12:07:07.075Z,18.10
2018-05-03T12:08:07.077Z,19.08
2018-05-03T12:09:07.079Z,19.67
2018-05-03T12:10:07.080Z,19.95
2018-05-03T12:11:07.081Z,19.95
2018-05-03T12:12:07.091Z,19.65
2018-05-03T12:13:07.085Z,19.74
2018-05-03T12:14:07.094Z,17.88
2018-05-03T12:15:07.098Z,19.36
2018-05-03T12:16:07.088Z,19.26
2018-05-03T12:17:07.093Z,19.65
2018-05-03T12:18:07.091Z,19.75
2018-05-03T12:19:07.091Z,20.84
2018-05-03T12:20:07.093Z,21.23
2018-05-03T12:21:07.095Z,20.53
2018-05-03T12:22:07.096Z,21.31
2018-05-03T12:23:07.104Z,21.21
2018-05-03T12:24:07.098Z,21.41
2018-05-03T12:25:07.099Z,21.21
2018-05-03T12:26:07.102Z,21.41
2018-05-03T12:27:07.102Z,21.31
2018-05-03T12:28:07.102Z,21.70
2018-05-03T12:29:07.104Z,20.73
2018-05-03T12:30:07.107Z,20.93
2018-05-03T12:31:07.106Z,20.23
2018-05-03T12:32:07.108Z,22.77
2018-05-03T12:33:07.109Z,21.21
2018-05-03T12:34:07.110Z,22.27
2018-05-03T12:35:07.111Z,21.49
2018-05-03T12:36:07.116Z,21.30
2018-05-03T12:37:07.114Z,21.39
2018-05-03T12:38:07.115Z,22.95
2018-05-03T12:39:07.115Z,21.48
2018-05-03T12:40:07.117Z,21.67
2018-05-03T12:41:07.117Z,22.34
2018-05-03T12:42:07.119Z,22.81
2018-05-03T12:43:07.119Z,23.30
2018-05-03T12:44:07.129Z,23.99
2018-05-03T12:45:07.120Z,23.29
2018-05-03T12:46:07.122Z,22.12
2018-05-03T12:47:07.130Z,22.50
2018-05-03T12:48:07.122Z,23.46
2018-05-03T12:49:07.125Z,23.36
2018-05-03T12:50:07.124Z,24.23
2018-05-03T12:51:07.124Z,24.12
2018-05-03T12:52:07.125Z,23.83